Time;durP1;ratioP1;P1;durP2;ratioP2;P2;SDS_P1;SDS_P2;PMS_P1;PMS_P2;Temp;Humidity;BMP_temperature;BMP_pressure;BME280_temperature;BME280_humidity;BME280_pressure;Samples;Min_cycle;Max_cycle;Signal;HPM_P1;HPM_P2
2022/08/17 00:01:15;;;;;;;7.18;3.80;;;;;;;25.06;45.44;100844.94;16138260;19;129495;-50
2022/08/17 00:06:38;;;;;;;4.18;3.70;;;;;;;25.05;45.63;100843.28;16134900;19;130705;-52
2022/08/17 00:12:00;;;;;;;3.90;3.47;;;;;;;25.03;45.38;100831.53;16135839;19;130798;-52
2022/08/17 00:17:44;;;;;;;5.03;3.92;;;;;;;25.02;45.27;100811.13;16134776;19;129121;-51
2022/08/17 00:23:11;;;;;;;5.03;3.58;;;;;;;25.03;45.34;100817.53;16134162;19;129925;-49
2022/08/17 00:28:33;;;;;;;7.20;3.95;;;;;;;25.02;45.22;100810.25;16128803;19;130197;-53
2022/08/17 00:33:57;;;;;;;4.57;3.60;;;;;;;25.01;45.44;100803.00;16137702;19;129529;-47
2022/08/17 00:39:19;;;;;;;5.57;4.07;;;;;;;25.01;45.34;100791.78;16136885;19;129921;-53
2022/08/17 00:44:40;;;;;;;4.07;3.67;;;;;;;25.00;45.53;100801.31;16135240;19;129667;-47
2022/08/17 00:50:05;;;;;;;3.95;3.60;;;;;;;24.99;45.38;100794.91;16127836;19;130412;-48
2022/08/17 00:55:27;;;;;;;3.75;3.40;;;;;;;24.99;45.42;100800.50;16134367;19;131131;-51
2022/08/17 01:00:50;;;;;;;3.90;3.50;;;;;;;24.99;45.45;100796.84;16131470;19;129625;-51
2022/08/17 01:06:13;;;;;;;4.25;3.30;;;;;;;24.99;45.43;100794.06;16128710;19;129505;-48
2022/08/17 01:11:35;;;;;;;5.18;3.75;;;;;;;24.98;45.49;100792.41;16133944;19;130218;-50
2022/08/17 01:16:59;;;;;;;4.43;3.83;;;;;;;24.98;45.54;100795.22;16134576;19;130940;-54
2022/08/17 01:22:24;;;;;;;3.90;3.60;;;;;;;24.98;45.51;100778.41;16133270;19;129454;-51
2022/08/17 01:27:47;;;;;;;5.78;3.55;;;;;;;24.97;45.52;100780.38;16133001;19;129986;-50
2022/08/17 01:33:10;;;;;;;4.32;3.80;;;;;;;24.98;45.59;100781.22;16138210;19;128962;-52
2022/08/17 01:38:34;;;;;;;3.88;3.58;;;;;;;24.98;45.64;100775.63;16133326;19;128980;-53
2022/08/17 01:44:00;;;;;;;3.70;3.40;;;;;;;24.97;45.58;100771.97;16133195;19;129376;-49
2022/08/17 01:49:22;;;;;;;4.28;3.40;;;;;;;24.97;45.51;100776.75;16131167;19;129014;-50
2022/08/17 01:54:46;;;;;;;4.43;3.97;;;;;;;24.96;45.27;100766.69;16130080;19;129736;-49
2022/08/17 02:00:09;;;;;;;3.65;3.35;;;;;;;24.96;45.16;100766.69;16133494;19;129083;-51
2022/08/17 02:05:31;;;;;;;5.13;4.22;;;;;;;24.95;45.32;100767.81;16128976;19;131670;-52
2022/08/17 02:10:53;;;;;;;3.88;3.58;;;;;;;24.96;45.51;100766.69;16127171;19;128935;-51
2022/08/17 02:16:16;;;;;;;4.30;3.90;;;;;;;24.95;45.38;100770.59;16130844;19;130625;-49
2022/08/17 02:21:39;;;;;;;6.32;4.10;;;;;;;24.94;45.71;100769.75;16133679;19;129538;-50
2022/08/17 02:27:00;;;;;;;4.15;3.83;;;;;;;24.94;45.40;100775.34;16129850;19;128945;-51
2022/08/17 02:32:25;;;;;;;5.55;4.18;;;;;;;24.93;45.52;100772.84;16142610;19;130121;-49
2022/08/17 02:37:50;;;;;;;4.05;3.65;;;;;;;24.93;45.40;100775.66;16146442;19;129484;-49
2022/08/17 02:43:16;;;;;;;3.85;3.55;;;;;;;24.93;45.17;100775.66;16146137;19;129115;-51
2022/08/17 02:48:38;;;;;;;3.90;3.60;;;;;;;24.91;45.14;100764.75;16143933;19;129883;-51
2022/08/17 02:54:00;;;;;;;5.20;4.63;;;;;;;24.91;45.41;100772.31;16145692;19;130069;-53
2022/08/17 02:59:42;;;;;;;9.90;4.50;;;;;;;24.90;45.28;100757.50;16145477;19;130037;-48
2022/08/17 03:05:11;;;;;;;5.60;4.35;;;;;;;24.90;45.19;100767.84;16142356;19;129114;-52
2022/08/17 03:10:33;;;;;;;4.60;4.10;;;;;;;24.87;45.03;100764.47;16141891;19;130597;-48
2022/08/17 03:15:55;;;;;;;4.88;4.38;;;;;;;24.87;45.09;100769.22;16143978;19;129562;-51
2022/08/17 03:21:17;;;;;;;4.50;4.10;;;;;;;24.87;44.92;100781.25;16144227;19;129185;-46
2022/08/17 03:26:39;;;;;;;4.95;4.32;;;;;;;24.86;45.16;100799.16;16143097;19;129067;-48
2022/08/17 03:32:10;;;;;;;5.35;3.72;;;;;;;24.88;45.03;100799.75;16143419;19;129448;-49
2022/08/17 03:37:32;;;;;;;4.40;4.00;;;;;;;24.86;45.29;100801.13;16144503;19;129458;-51
2022/08/17 03:42:54;;;;;;;4.38;3.97;;;;;;;24.85;44.85;100803.13;16140676;19;128806;-50
2022/08/17 03:59:39;;;;;;;5.10;4.55;;;;;;;24.84;45.05;100809.84;16141733;19;130958;-48
2022/08/17 04:05:01;;;;;;;28.45;11.20;;;;;;;24.73;44.66;100813.84;16139544;19;132516;-50
2022/08/17 04:10:23;;;;;;;20.90;11.55;;;;;;;24.69;44.58;100819.16;16137233;19;130452;-54
2022/08/17 04:15:48;;;;;;;20.52;10.98;;;;;;;24.62;44.38;100826.19;16137877;19;129319;-59
2022/08/17 04:21:09;;;;;;;18.10;12.10;;;;;;;24.53;44.88;100834.38;16141864;19;129175;-60
2022/08/17 04:26:31;;;;;;;15.90;11.40;;;;;;;24.47;44.60;100838.31;16140996;19;129386;-62
2022/08/17 04:32:13;;;;;;;15.88;11.40;;;;;;;24.40;44.93;100845.09;16141071;19;130514;-64
2022/08/17 04:37:34;;;;;;;22.25;12.10;;;;;;;24.42;44.81;100875.53;16141319;19;129877;-60
2022/08/17 04:43:01;;;;;;;13.45;11.82;;;;;;;24.40;44.67;100878.63;16142062;19;130274;-61
2022/08/17 04:48:29;;;;;;;18.85;13.57;;;;;;;24.40;45.07;100886.19;16140467;19;129460;-62
2022/08/17 04:54:08;;;;;;;22.38;13.55;;;;;;;24.37;44.83;100878.38;16135592;19;129306;-62
2022/08/17 04:59:29;;;;;;;16.30;14.30;;;;;;;24.35;45.04;100884.25;16141365;19;129123;-60
2022/08/17 05:04:51;;;;;;;23.10;15.95;;;;;;;24.35;45.21;100883.41;16135587;19;129908;-61
2022/08/17 05:10:16;;;;;;;20.67;16.00;;;;;;;24.33;45.63;100882.88;16135109;19;130658;-60
2022/08/17 05:15:39;;;;;;;22.75;16.75;;;;;;;24.33;45.41;100902.44;16140349;19;129454;-59
2022/08/17 05:21:07;;;;;;;30.38;15.73;;;;;;;24.32;45.72;100889.56;16139765;19;129480;-61
2022/08/17 05:26:29;;;;;;;29.08;17.90;;;;;;;24.30;45.94;100883.44;16139934;19;129054;-60
2022/08/17 05:31:51;;;;;;;23.40;17.80;;;;;;;24.30;46.21;100884.28;16132272;19;129065;-63
2022/08/17 05:37:13;;;;;;;24.52;18.65;;;;;;;24.33;46.41;100871.69;16140203;19;129757;-61
2022/08/17 05:42:35;;;;;;;22.05;19.17;;;;;;;24.32;46.72;100881.19;16135499;19;129606;-60
2022/08/17 05:47:56;;;;;;;22.10;18.63;;;;;;;24.29;46.59;100893.78;16133415;19;129554;-61
2022/08/17 05:53:38;;;;;;;22.88;18.27;;;;;;;24.31;46.84;100885.09;16132089;19;129231;-61
2022/08/17 05:59:46;;;;;;;22.48;18.98;;;;;;;24.31;47.06;100879.50;16134690;19;128905;-62
2022/08/17 06:05:16;;;;;;;24.92;19.00;;;;;;;24.32;46.96;100881.19;16137159;19;129014;-60
2022/08/17 06:11:03;;;;;;;28.35;23.88;;;;;;;24.38;46.94;100878.09;16145650;19;130616;-59
2022/08/17 06:16:31;;;;;;;34.20;24.67;;;;;;;24.43;47.16;100877.22;16147349;19;129571;-62
2022/08/17 06:21:55;;;;;;;39.58;24.15;;;;;;;24.49;47.11;100881.69;16151021;19;130597;-62
2022/08/17 06:27:35;;;;;;;36.50;26.67;;;;;;;24.55;46.97;100897.28;16144944;19;129481;-62
2022/08/17 06:33:04;;;;;;;39.75;27.70;;;;;;;24.56;47.01;100898.97;16148804;19;129946;-62
2022/08/17 06:38:56;;;;;;;40.25;29.77;;;;;;;24.57;47.48;100906.25;16147064;19;129981;-62
2022/08/17 06:44:41;;;;;;;35.97;30.48;;;;;;;24.54;47.08;100905.97;16147875;19;129539;-62
2022/08/17 06:50:27;;;;;;;42.00;32.53;;;;;;;24.47;47.40;100911.03;16142414;19;129870;-62
2022/08/17 06:55:58;;;;;;;38.42;29.40;;;;;;;24.47;47.36;100923.06;16143521;19;129506;-60
2022/08/17 07:01:25;;;;;;;37.45;30.58;;;;;;;24.51;47.23;100940.09;16144010;19;129861;-63
2022/08/17 07:06:55;;;;;;;41.95;34.83;;;;;;;24.56;47.84;100949.31;16142609;19;130589;-61
2022/08/17 07:12:23;;;;;;;47.10;33.38;;;;;;;24.56;48.00;100943.72;16140562;19;130451;-61
2022/08/17 07:17:48;;;;;;;44.70;32.47;;;;;;;24.57;48.18;100942.59;16140274;19;129188;-60
2022/08/17 07:23:37;;;;;;;45.30;35.00;;;;;;;24.60;48.41;100941.19;16145268;19;129565;-63
2022/08/17 07:29:01;;;;;;;47.50;35.72;;;;;;;24.60;48.38;100943.16;16139714;19;128910;-61
2022/08/17 07:34:22;;;;;;;46.63;36.10;;;;;;;24.60;48.25;100945.94;16143784;19;129335;-62
2022/08/17 07:39:49;;;;;;;46.03;34.83;;;;;;;24.60;48.54;100934.75;16142006;19;130133;-61
2022/08/17 07:51:17;;;;;;;71.00;31.45;;;;;;;24.57;47.95;100948.19;16139409;19;130606;-61
2022/08/17 07:56:52;;;;;;;53.17;28.15;;;;;;;24.56;47.95;100931.69;16136170;19;131217;-61
2022/08/17 08:02:26;;;;;;;43.00;28.00;;;;;;;24.53;48.20;100929.47;16136873;19;129896;-61
2022/08/17 08:08:17;;;;;;;36.80;29.17;;;;;;;24.52;47.83;100939.81;16136292;19;131585;-61
2022/08/17 08:13:43;;;;;;;44.13;30.00;;;;;;;24.51;47.79;100956.88;16136359;19;130874;-51
2022/08/17 08:19:07;;;;;;;35.60;30.10;;;;;;;24.50;47.84;100956.03;16138823;19;128921;-52
2022/08/17 08:25:01;;;;;;;41.55;30.00;;;;;;;24.48;47.49;100977.88;16140112;19;129527;-50
2022/08/17 08:30:22;;;;;;;34.45;30.55;;;;;;;24.50;47.78;100992.38;16117837;19;129970;-54
2022/08/17 08:35:53;;;;;;;36.47;31.10;;;;;;;24.51;47.80;101016.44;16129351;19;129268;-54
2022/08/17 08:41:40;;;;;;;39.33;32.85;;;;;;;24.55;48.56;101025.94;16129592;19;129725;-54
2022/08/17 08:47:03;;;;;;;45.67;34.28;;;;;;;24.51;48.93;101015.63;16123947;19;130265;-53
2022/08/17 08:52:46;;;;;;;45.90;31.77;;;;;;;24.52;48.64;101006.09;16120787;19;129641;-56
2022/08/17 08:58:27;;;;;;;45.00;30.48;;;;;;;24.57;48.88;101001.34;16125807;19;129774;-58
2022/08/17 09:04:13;;;;;;;38.38;31.35;;;;;;;24.63;48.51;100984.50;16128326;19;130622;-56
2022/08/17 09:10:07;;;;;;;35.95;30.15;;;;;;;24.66;48.66;101004.38;16133317;19;129461;-58
2022/08/17 09:15:49;;;;;;;31.90;25.88;;;;;;;24.69;48.57;101011.34;16135614;19;130061;-53
2022/08/17 09:21:29;;;;;;;33.65;24.95;;;;;;;24.72;48.59;101010.78;16135867;19;130145;-57
2022/08/17 09:27:10;;;;;;;27.58;24.02;;;;;;;24.74;48.45;101028.09;16130350;19;129281;-57
2022/08/17 09:32:43;;;;;;;25.65;21.27;;;;;;;24.74;48.61;101050.47;16131847;19;130603;-57
2022/08/17 09:38:20;;;;;;;22.92;19.48;;;;;;;24.77;48.49;101047.13;16138162;19;130464;-55
2022/08/17 09:44:26;;;;;;;24.60;19.20;;;;;;;24.80;48.23;101026.97;16149656;19;129317;-58
2022/08/17 09:50:08;;;;;;;26.17;16.63;;;;;;;24.81;48.17;101034.25;16145441;19;129109;-57
2022/08/17 09:55:43;;;;;;;18.70;15.77;;;;;;;24.84;47.92;101033.69;16144332;19;129964;-58
2022/08/17 10:01:21;;;;;;;19.60;14.32;;;;;;;24.86;47.79;101020.22;16151375;19;130516;-58
2022/08/17 10:07:11;;;;;;;19.92;14.45;;;;;;;24.87;48.10;101023.88;16142728;19;128885;-59
2022/08/17 10:13:02;;;;;;;25.05;13.60;;;;;;;24.86;47.84;101020.22;16145032;19;129359;-57
2022/08/17 10:18:58;;;;;;;15.93;13.32;;;;;;;24.85;47.72;101021.38;16150680;19;129219;-58
2022/08/17 10:30:30;;;;;;;13.93;11.93;;;;;;;24.83;47.83;101009.63;16145255;19;129809;-59
2022/08/17 10:36:10;;;;;;;24.35;12.25;;;;;;;24.85;48.06;101007.38;16148596;19;129572;-59
2022/08/17 10:41:43;;;;;;;20.60;13.77;;;;;;;24.86;47.93;101009.03;16145418;19;129691;-59
2022/08/17 10:47:13;;;;;;;19.45;13.93;;;;;;;24.88;48.04;101028.34;16148020;19;129331;-59
2022/08/17 10:52:41;;;;;;;22.02;13.15;;;;;;;24.87;48.13;101010.69;16139061;19;129321;-60
2022/08/17 10:58:23;;;;;;;22.00;12.77;;;;;;;24.87;47.88;101026.66;16144706;19;129556;-59
2022/08/17 11:03:52;;;;;;;20.10;12.20;;;;;;;24.86;47.92;101022.19;16143259;19;129257;-60
2022/08/17 11:09:29;;;;;;;20.58;12.43;;;;;;;24.86;47.87;101023.00;16146072;19;129557;-65
2022/08/17 11:15:14;;;;;;;21.27;11.38;;;;;;;24.86;48.13;101039.81;16146450;19;129677;-66
2022/08/17 11:20:45;;;;;;;23.60;11.98;;;;;;;24.83;48.18;101048.78;16147276;19;129208;-65
2022/08/17 11:26:29;;;;;;;22.27;11.65;;;;;;;24.84;47.98;101044.88;16146946;19;129163;-64
2022/08/17 11:32:32;;;;;;;20.52;11.13;;;;;;;24.82;48.12;101047.13;16142254;19;129581;-61
2022/08/17 11:38:11;;;;;;;22.33;10.93;;;;;;;24.84;47.90;101056.06;16144422;19;129370;-66
2022/08/17 11:44:02;;;;;;;17.08;10.10;;;;;;;24.83;47.98;101082.38;16143455;19;129879;-61
2022/08/17 11:55:37;;;;;;;17.67;9.73;;;;;;;24.82;47.86;101075.09;16138715;19;129103;-59
2022/08/17 12:01:25;;;;;;;17.17;10.15;;;;;;;24.83;47.83;101076.78;16139563;19;129171;-59
2022/08/17 12:06:51;;;;;;;13.93;9.23;;;;;;;24.83;48.12;101090.75;16139349;19;129558;-59
2022/08/17 12:12:21;;;;;;;13.52;9.98;;;;;;;24.84;47.86;101080.41;16137547;19;129712;-60
2022/08/17 12:17:51;;;;;;;15.55;9.38;;;;;;;24.84;47.97;101086.84;16139468;19;129951;-60
2022/08/17 12:23:19;;;;;;;15.07;9.27;;;;;;;24.83;47.86;101089.91;16140133;19;129507;-60
2022/08/17 12:28:46;;;;;;;22.65;9.05;;;;;;;24.83;47.75;101087.97;16141889;19;129341;-60
2022/08/17 12:34:16;;;;;;;21.17;9.23;;;;;;;24.82;47.82;101085.44;16133683;19;129660;-59
2022/08/17 12:39:51;;;;;;;24.42;8.63;;;;;;;24.83;48.06;101082.38;16137275;19;129370;-59
2022/08/17 12:45:35;;;;;;;18.20;8.57;;;;;;;24.86;47.74;101075.34;16135506;19;130177;-59
2022/08/17 12:51:00;;;;;;;30.20;9.88;;;;;;;24.86;47.69;101086.53;16135078;19;129502;-57
2022/08/17 12:56:22;;;;;;;30.13;12.23;;;;;;;24.85;47.70;101080.13;16132825;19;129578;-59
2022/08/17 13:01:44;;;;;;;22.33;11.77;;;;;;;24.86;47.83;101070.59;16137044;19;130704;-59
2022/08/17 13:07:06;;;;;;;19.25;9.43;;;;;;;24.90;48.14;101064.44;16132549;19;130515;-59
2022/08/17 13:12:34;;;;;;;20.60;9.98;;;;;;;24.92;47.94;101079.00;16133281;19;129619;-59
2022/08/17 13:18:05;;;;;;;22.20;9.80;;;;;;;24.92;47.83;101079.84;16129606;19;131727;-61
2022/08/17 13:23:30;;;;;;;18.52;9.52;;;;;;;24.91;47.99;101077.31;16134906;19;132075;-60
2022/08/17 13:28:53;;;;;;;20.48;9.80;;;;;;;24.88;47.91;101079.56;16134619;19;129533;-60
2022/08/17 13:34:16;;;;;;;24.70;9.85;;;;;;;24.88;48.10;101079.56;16134954;19;131001;-60
2022/08/17 13:39:43;;;;;;;23.52;9.82;;;;;;;24.87;47.85;101069.47;16135663;19;129229;-61
2022/08/17 13:45:29;;;;;;;17.27;10.27;;;;;;;24.85;48.04;101077.34;16134072;19;129099;-60
2022/08/17 13:50:57;;;;;;;23.02;11.55;;;;;;;24.83;48.06;101073.97;16133852;19;129165;-60
2022/08/17 13:56:31;;;;;;;15.07;10.30;;;;;;;24.84;48.15;101066.41;16131923;19;129757;-60
2022/08/17 14:01:59;;;;;;;26.50;11.32;;;;;;;24.81;48.36;101069.75;16133158;19;129371;-62
2022/08/17 14:07:29;;;;;;;22.27;10.98;;;;;;;24.81;48.20;101065.03;16131555;19;129522;-63
2022/08/17 14:12:51;;;;;;;15.55;11.38;;;;;;;24.80;48.22;101059.72;16129198;19;129864;-60
2022/08/17 14:18:13;;;;;;;12.48;10.68;;;;;;;24.80;48.10;101057.75;16131815;19;129868;-60
2022/08/17 14:23:35;;;;;;;14.88;11.65;;;;;;;24.79;48.07;101050.47;16131297;19;129437;-59
2022/08/17 14:28:57;;;;;;;13.77;11.98;;;;;;;24.81;47.89;101051.03;16143921;19;129368;-60
2022/08/17 14:34:22;;;;;;;15.52;10.80;;;;;;;24.83;48.00;101047.94;16146480;19;130150;-61
2022/08/17 14:39:44;;;;;;;12.93;9.80;;;;;;;24.84;48.08;101050.47;16146645;19;130093;-59
2022/08/17 14:45:09;;;;;;;15.73;9.48;;;;;;;24.91;48.63;101066.13;16144373;19;130570;-61
2022/08/17 14:50:50;;;;;;;18.48;8.68;;;;;;;24.97;48.29;101070.59;16143418;19;129767;-61
2022/08/17 14:56:12;;;;;;;15.73;8.57;;;;;;;25.00;48.42;101070.00;16141940;19;129772;-61
2022/08/17 15:01:35;;;;;;;11.80;8.93;;;;;;;25.01;47.94;101071.69;16142718;19;129794;-63
2022/08/17 15:06:57;;;;;;;14.52;8.77;;;;;;;25.04;48.08;101065.50;16139525;19;129590;-62
2022/08/17 15:12:22;;;;;;;13.60;7.80;;;;;;;25.05;47.85;101063.56;16140755;19;130059;-61
2022/08/17 15:17:52;;;;;;;10.65;8.07;;;;;;;25.07;47.90;101047.28;16138603;19;130022;-62
2022/08/17 15:23:17;;;;;;;14.48;8.90;;;;;;;25.07;48.07;101059.34;16145248;19;129644;-62
2022/08/17 15:28:39;;;;;;;12.70;8.90;;;;;;;25.08;48.23;101043.38;16143973;19;130877;-61
2022/08/17 15:34:04;;;;;;;11.50;8.60;;;;;;;25.07;48.41;101036.94;16140663;19;129946;-62
2022/08/17 15:39:28;;;;;;;10.65;8.10;;;;;;;25.09;48.40;101031.06;16143167;19;131385;-61
2022/08/17 15:44:51;;;;;;;16.70;8.15;;;;;;;25.12;48.62;101030.50;16142062;19;129819;-61
2022/08/17 15:50:13;;;;;;;12.38;8.27;;;;;;;25.11;48.72;101026.84;16140320;19;129212;-61
2022/08/17 15:55:37;;;;;;;14.55;7.35;;;;;;;25.12;48.87;101011.72;16137421;19;130068;-61
2022/08/17 16:01:01;;;;;;;8.60;7.35;;;;;;;25.14;48.34;101015.06;16142003;19;129399;-61
2022/08/17 16:06:39;;;;;;;13.30;7.70;;;;;;;25.14;48.63;101005.84;16136371;19;130199;-61
2022/08/17 16:12:19;;;;;;;29.08;8.05;;;;;;;25.16;48.73;101009.19;16137858;19;129143;-61
2022/08/17 16:17:41;;;;;;;22.80;8.23;;;;;;;25.15;48.96;101019.53;16140579;19;128892;-61
2022/08/17 16:23:03;;;;;;;17.85;7.88;;;;;;;25.17;48.98;101008.06;16142851;19;129080;-59
2022/08/17 16:28:25;;;;;;;13.88;7.63;;;;;;;25.16;49.03;101017.59;16141990;19;129290;-56
2022/08/17 16:33:57;;;;;;;15.07;7.78;;;;;;;25.18;48.74;101037.72;16128601;19;129624;-61
2022/08/17 16:39:39;;;;;;;18.40;8.20;;;;;;;25.16;48.53;101040.81;16135942;19;129464;-62
2022/08/17 16:45:09;;;;;;;19.63;8.18;;;;;;;25.16;48.75;101051.19;16136009;19;130686;-56
2022/08/17 16:50:32;;;;;;;15.85;8.60;;;;;;;25.14;48.42;101048.66;16139548;19;129115;-57
2022/08/17 16:55:55;;;;;;;11.85;8.40;;;;;;;25.13;48.48;101074.16;16136450;19;129986;-56
2022/08/17 17:01:19;;;;;;;12.25;8.20;;;;;;;25.12;48.79;101073.31;16138496;19;129801;-57
2022/08/17 17:07:13;;;;;;;16.50;7.28;;;;;;;25.10;48.41;101081.19;16133682;19;130712;-59
2022/08/17 17:12:39;;;;;;;10.70;7.55;;;;;;;25.09;48.30;101087.03;16136998;19;129005;-59
2022/08/17 17:18:42;;;;;;;12.43;7.25;;;;;;;25.06;48.37;101082.88;16132304;19;129335;-59
2022/08/17 17:24:12;;;;;;;13.10;6.95;;;;;;;25.05;47.91;101088.75;16138040;19;129572;-59
2022/08/17 17:29:55;;;;;;;12.93;6.70;;;;;;;25.04;48.36;101090.69;16135137;19;129498;-59
2022/08/17 17:35:52;;;;;;;8.18;6.65;;;;;;;25.02;48.40;101096.59;16137314;19;129889;-61
2022/08/17 17:41:21;;;;;;;7.25;6.50;;;;;;;24.98;48.00;101089.06;16135726;19;130232;-59
2022/08/17 17:46:55;;;;;;;12.40;6.90;;;;;;;24.96;48.34;101086.53;16135998;19;130065;-59
2022/08/17 17:52:44;;;;;;;11.05;6.60;;;;;;;24.94;48.08;101076.75;16130600;19;129223;-60
2022/08/17 17:58:19;;;;;;;8.27;7.00;;;;;;;24.91;48.46;101088.53;16133239;19;129596;-59
2022/08/17 18:04:00;;;;;;;7.60;5.85;;;;;;;24.90;48.24;101081.25;16146389;19;129725;-59
2022/08/17 18:09:55;;;;;;;7.95;6.20;;;;;;;24.86;48.08;101075.34;16149139;19;128820;-60
2022/08/17 18:15:28;;;;;;;6.57;5.22;;;;;;;24.83;48.13;101076.78;16148964;19;129015;-59
2022/08/17 18:20:53;;;;;;;8.40;5.72;;;;;;;24.81;48.34;101076.22;16148933;19;131232;-59
2022/08/17 18:26:31;;;;;;;8.55;7.30;;;;;;;24.76;47.71;101073.41;16143499;19;130411;-46
2022/08/17 18:32:21;;;;;;;10.68;8.65;;;;;;;24.58;47.45;101075.72;16148296;19;129562;-59
2022/08/17 18:37:47;;;;;;;8.60;7.80;;;;;;;24.45;47.47;101087.50;16148578;19;129529;-59
2022/08/17 18:43:13;;;;;;;11.18;8.07;;;;;;;24.40;47.97;101107.94;16149582;19;129081;-57
2022/08/17 18:48:52;;;;;;;9.48;7.40;;;;;;;24.32;47.27;101097.28;16146569;19;129198;-51
2022/08/17 18:54:23;;;;;;;9.10;7.30;;;;;;;24.30;47.67;101101.50;16140872;19;128815;-52
2022/08/17 18:59:47;;;;;;;8.88;7.55;;;;;;;24.34;47.42;101119.41;16145735;19;129645;-57
2022/08/17 19:05:38;;;;;;;10.50;7.20;;;;;;;24.37;47.79;101130.03;16144035;19;130533;-59
2022/08/17 19:11:04;;;;;;;8.40;7.45;;;;;;;24.37;47.88;101124.44;16140279;19;128921;-59
2022/08/17 19:16:33;;;;;;;9.88;8.88;;;;;;;24.36;47.75;101122.75;16141813;19;130034;-60
2022/08/17 19:22:05;;;;;;;13.88;10.25;;;;;;;24.35;47.36;101126.66;16143433;19;129845;-59
2022/08/17 19:27:35;;;;;;;15.40;10.25;;;;;;;24.33;47.45;101140.09;16143357;19;129175;-59
2022/08/17 19:33:18;;;;;;;16.67;10.27;;;;;;;24.29;47.72;101156.59;16139834;19;129280;-59
2022/08/17 19:39:17;;;;;;;11.40;9.15;;;;;;;24.30;48.10;101157.41;16142915;19;130447;-59
2022/08/17 19:44:47;;;;;;;16.40;9.65;;;;;;;24.29;47.90;101158.53;16143253;19;129387;-60
2022/08/17 19:50:14;;;;;;;13.63;9.82;;;;;;;24.30;47.97;101168.59;16143872;19;129359;-66
2022/08/17 19:55:53;;;;;;;24.63;10.15;;;;;;;24.29;47.83;101170.56;16138225;19;129463;-63
2022/08/17 20:01:25;;;;;;;23.92;10.55;;;;;;;24.27;47.86;101182.00;16142758;19;129949;-67
2022/08/17 20:07:05;;;;;;;44.90;10.68;;;;;;;24.27;47.77;101187.59;16133115;19;129045;-64
2022/08/17 20:12:34;;;;;;;18.02;10.13;;;;;;;24.26;47.60;101177.53;16134571;19;131004;-70
2022/08/17 20:17:59;;;;;;;12.70;9.40;;;;;;;24.24;47.36;101196.56;16142795;19;130267;-63
2022/08/17 20:23:35;;;;;;;43.28;10.00;;;;;;;24.26;47.56;101202.69;16133964;19;132589;-65
2022/08/17 20:29:04;;;;;;;21.73;8.80;;;;;;;24.30;46.79;101190.97;16134977;19;129409;-60
2022/08/17 20:34:29;;;;;;;17.08;9.70;;;;;;;24.31;46.90;101192.66;16134778;19;129796;-62
2022/08/17 20:39:57;;;;;;;18.98;9.73;;;;;;;24.31;46.79;101198.22;16138679;19;129312;-70
2022/08/17 20:45:19;;;;;;;17.63;9.05;;;;;;;24.31;46.37;101199.06;16137395;19;130255;-67
2022/08/17 20:50:50;;;;;;;17.35;9.55;;;;;;;24.32;46.03;101203.53;16138187;19;129564;-70
2022/08/17 20:56:43;;;;;;;14.90;10.45;;;;;;;24.33;46.21;101202.44;16133534;19;129260;-68
2022/08/17 21:02:05;;;;;;;16.55;10.57;;;;;;;24.31;45.81;101209.41;16138293;19;130167;-68
2022/08/17 21:07:52;;;;;;;20.05;9.82;;;;;;;24.30;45.92;101207.75;16131778;19;130092;-66
2022/08/17 21:13:14;;;;;;;29.17;11.00;;;;;;;24.26;46.11;101216.69;16131810;19;129517;-60
2022/08/17 21:19:14;;;;;;;19.05;9.55;;;;;;;24.27;45.82;101214.75;16136008;19;129756;-60
2022/08/17 21:25:00;;;;;;;22.30;9.40;;;;;;;24.24;46.01;101209.66;16138632;19;129395;-60
2022/08/17 21:31:07;;;;;;;19.73;8.52;;;;;;;24.28;46.11;101222.00;16134134;19;129761;-60
2022/08/17 21:36:30;;;;;;;17.95;7.85;;;;;;;24.29;46.32;101225.63;16136975;19;129755;-60
2022/08/17 21:41:54;;;;;;;18.13;7.40;;;;;;;24.29;46.39;101245.19;16148974;19;131491;-60
2022/08/17 21:47:23;;;;;;;12.73;6.67;;;;;;;24.30;46.41;101232.91;16144777;19;129865;-60
2022/08/17 21:52:46;;;;;;;16.08;6.75;;;;;;;24.29;46.58;101234.88;16148042;19;130244;-60
2022/08/17 21:58:27;;;;;;;17.60;7.10;;;;;;;24.31;46.30;101209.41;16149349;19;129124;-60
2022/08/17 22:04:18;;;;;;;12.05;6.65;;;;;;;24.29;46.43;101204.13;16147739;19;129571;-60
2022/08/17 22:09:46;;;;;;;12.85;7.00;;;;;;;24.30;46.11;101202.16;16149090;19;130629;-60
2022/08/17 22:15:14;;;;;;;11.73;6.65;;;;;;;24.27;46.43;101193.19;16146979;19;129368;-60
2022/08/17 22:20:37;;;;;;;14.68;7.30;;;;;;;24.27;46.45;101189.56;16148960;19;130541;-60
2022/08/17 22:26:04;;;;;;;16.25;6.65;;;;;;;24.27;46.38;101184.81;16142614;19;130676;-59
2022/08/17 22:31:53;;;;;;;9.55;6.53;;;;;;;24.26;46.33;101196.28;16148142;19;129408;-60
2022/08/17 22:37:27;;;;;;;10.83;6.77;;;;;;;24.25;46.38;101201.00;16147729;19;129263;-60
2022/08/17 22:42:49;;;;;;;8.32;6.50;;;;;;;24.25;46.53;101192.63;16148546;19;129268;-60
2022/08/17 22:48:15;;;;;;;10.50;6.18;;;;;;;24.25;46.78;101194.59;16146835;19;128985;-59
2022/08/17 22:59:40;;;;;;;11.05;6.35;;;;;;;24.24;46.48;101213.34;16144844;19;129748;-60
2022/08/17 23:05:17;;;;;;;9.68;5.90;;;;;;;24.23;46.68;101208.84;16142254;19;129782;-60
2022/08/17 23:10:41;;;;;;;8.90;5.78;;;;;;;24.21;46.27;101199.88;16144336;19;130075;-60
2022/08/17 23:16:03;;;;;;;11.05;6.25;;;;;;;24.20;46.26;101198.19;16139193;19;129809;-60
2022/08/17 23:21:28;;;;;;;9.82;5.70;;;;;;;24.21;46.84;101215.81;16143105;19;129194;-60
2022/08/17 23:26:51;;;;;;;7.28;6.55;;;;;;;24.18;46.51;101222.78;16141566;19;129460;-59
2022/08/17 23:32:14;;;;;;;8.63;6.78;;;;;;;24.19;46.70;101218.03;16141089;19;128932;-59
2022/08/17 23:37:36;;;;;;;8.27;7.20;;;;;;;24.17;46.36;101209.94;16141334;19;129981;-59
2022/08/17 23:42:58;;;;;;;8.85;5.85;;;;;;;24.17;46.71;101209.94;16137765;19;129110;-59
2022/08/17 23:48:20;;;;;;;7.75;6.85;;;;;;;24.16;46.57;101211.03;16135380;19;129387;-59
2022/08/17 23:54:03;;;;;;;9.25;6.80;;;;;;;24.16;46.58;101208.25;16138191;19;129622;-59
2022/08/17 23:59:29;;;;;;;8.65;7.25;;;;;;;24.16;46.57;101215.81;16136119;19;130414;-59
